sensor_id;sensor_type;location;lat;lon;timestamp;pressure;altitude;pressure_sealevel;temperature;humidity
9969;BME280;5025;48.890;9.278;2023-02-13T00:01:52;100765.44;;;3.66;69.60
9969;BME280;5025;48.890;9.278;2023-02-13T00:04:18;100763.19;;;3.61;69.52
9969;BME280;5025;48.890;9.278;2023-02-13T00:06:43;100756.13;;;3.60;69.75
9969;BME280;5025;48.890;9.278;2023-02-13T00:09:12;100760.78;;;3.58;69.49
9969;BME280;5025;48.890;9.278;2023-02-13T00:11:37;100760.91;;;3.56;69.42
9969;BME280;5025;48.890;9.278;2023-02-13T00:14:02;100754.97;;;3.53;69.64
9969;BME280;5025;48.890;9.278;2023-02-13T00:16:28;100754.28;;;3.51;69.54
9969;BME280;5025;48.890;9.278;2023-02-13T00:18:53;100758.03;;;3.48;69.58
9969;BME280;5025;48.890;9.278;2023-02-13T00:21:18;100760.00;;;3.46;69.68
9969;BME280;5025;48.890;9.278;2023-02-13T00:23:44;100756.03;;;3.40;69.75
9969;BME280;5025;48.890;9.278;2023-02-13T00:26:11;100760.41;;;3.41;69.69
9969;BME280;5025;48.890;9.278;2023-02-13T00:28:37;100759.72;;;3.39;69.76
9969;BME280;5025;48.890;9.278;2023-02-13T00:31:11;100759.84;;;3.38;69.88
9969;BME280;5025;48.890;9.278;2023-02-13T00:33:37;100756.31;;;3.37;69.82
9969;BME280;5025;48.890;9.278;2023-02-13T00:36:08;100758.28;;;3.35;69.87
9969;BME280;5025;48.890;9.278;2023-02-13T00:38:34;100757.56;;;3.33;69.87
9969;BME280;5025;48.890;9.278;2023-02-13T00:41:00;100758.53;;;3.32;69.74
9969;BME280;5025;48.890;9.278;2023-02-13T00:43:25;100754.31;;;3.30;69.85
9969;BME280;5025;48.890;9.278;2023-02-13T00:45:50;100753.47;;;3.29;70.02
9969;BME280;5025;48.890;9.278;2023-02-13T00:48:16;100758.09;;;3.27;69.88
9969;BME280;5025;48.890;9.278;2023-02-13T00:50:41;100755.56;;;3.26;70.02
9969;BME280;5025;48.890;9.278;2023-02-13T00:53:07;100751.19;;;3.25;70.00
9969;BME280;5025;48.890;9.278;2023-02-13T00:55:32;100748.66;;;3.23;70.15
9969;BME280;5025;48.890;9.278;2023-02-13T00:57:59;100757.63;;;3.22;70.14
9969;BME280;5025;48.890;9.278;2023-02-13T01:00:24;100750.75;;;3.19;70.21
9969;BME280;5025;48.890;9.278;2023-02-13T01:02:50;100752.97;;;3.14;70.15
9969;BME280;5025;48.890;9.278;2023-02-13T01:05:15;100740.00;;;3.10;70.04
9969;BME280;5025;48.890;9.278;2023-02-13T01:07:40;100746.34;;;3.09;70.08
9969;BME280;5025;48.890;9.278;2023-02-13T01:10:06;100745.03;;;3.03;70.07
9969;BME280;5025;48.890;9.278;2023-02-13T01:12:31;100740.34;;;2.95;70.28
9969;BME280;5025;48.890;9.278;2023-02-13T01:14:57;100748.34;;;2.95;70.08
9969;BME280;5025;48.890;9.278;2023-02-13T01:17:22;100743.28;;;2.92;70.20
9969;BME280;5025;48.890;9.278;2023-02-13T01:19:49;100744.50;;;2.88;70.25
9969;BME280;5025;48.890;9.278;2023-02-13T01:22:15;100745.38;;;2.89;70.19
9969;BME280;5025;48.890;9.278;2023-02-13T01:24:40;100748.19;;;2.87;70.30
9969;BME280;5025;48.890;9.278;2023-02-13T01:27:05;100751.81;;;2.86;70.17
9969;BME280;5025;48.890;9.278;2023-02-13T01:29:31;100752.06;;;2.83;70.12
9969;BME280;5025;48.890;9.278;2023-02-13T01:31:56;100757.78;;;2.78;70.16
9969;BME280;5025;48.890;9.278;2023-02-13T01:34:21;100751.63;;;2.78;70.18
9969;BME280;5025;48.890;9.278;2023-02-13T01:36:46;100752.72;;;2.75;70.12
9969;BME280;5025;48.890;9.278;2023-02-13T01:39:12;100751.88;;;2.75;70.28
9969;BME280;5025;48.890;9.278;2023-02-13T01:41:38;100743.25;;;2.71;70.21
9969;BME280;5025;48.890;9.278;2023-02-13T01:47:08;100741.84;;;2.67;70.22
9969;BME280;5025;48.890;9.278;2023-02-13T01:49:34;100740.28;;;2.64;70.25
9969;BME280;5025;48.890;9.278;2023-02-13T01:52:00;100731.56;;;2.62;70.27
9969;BME280;5025;48.890;9.278;2023-02-13T01:54:28;100739.44;;;2.64;70.23
9969;BME280;5025;48.890;9.278;2023-02-13T01:56:59;100737.88;;;2.61;70.31
9969;BME280;5025;48.890;9.278;2023-02-13T01:59:32;100739.69;;;2.61;70.37
9969;BME280;5025;48.890;9.278;2023-02-13T02:01:59;100741.53;;;2.60;70.39
9969;BME280;5025;48.890;9.278;2023-02-13T02:04:29;100737.28;;;2.58;70.38
9969;BME280;5025;48.890;9.278;2023-02-13T02:07:03;100735.72;;;2.55;70.49
9969;BME280;5025;48.890;9.278;2023-02-13T02:09:34;100735.72;;;2.55;70.53
9969;BME280;5025;48.890;9.278;2023-02-13T02:12:06;100743.00;;;2.53;70.56
9969;BME280;5025;48.890;9.278;2023-02-13T02:14:34;100745.69;;;2.53;70.71
9969;BME280;5025;48.890;9.278;2023-02-13T02:16:59;100748.34;;;2.53;70.77
9969;BME280;5025;48.890;9.278;2023-02-13T02:22:50;100736.72;;;2.54;70.68
9969;BME280;5025;48.890;9.278;2023-02-13T02:28:00;100730.63;;;2.52;70.79
9969;BME280;5025;48.890;9.278;2023-02-13T02:33:13;100729.94;;;2.50;71.00
9969;BME280;5025;48.890;9.278;2023-02-13T02:43:47;100725.16;;;2.32;70.97
9969;BME280;5025;48.890;9.278;2023-02-13T02:46:33;100730.75;;;2.29;70.90
9969;BME280;5025;48.890;9.278;2023-02-13T02:49:05;100731.97;;;2.25;70.95
9969;BME280;5025;48.890;9.278;2023-02-13T02:52:00;100736.59;;;2.23;70.87
9969;BME280;5025;48.890;9.278;2023-02-13T02:54:36;100737.69;;;2.21;71.25
9969;BME280;5025;48.890;9.278;2023-02-13T02:57:26;100732.97;;;2.13;70.90
9969;BME280;5025;48.890;9.278;2023-02-13T03:00:18;100740.75;;;2.05;70.95
9969;BME280;5025;48.890;9.278;2023-02-13T03:03:19;100732.28;;;2.00;70.97
9969;BME280;5025;48.890;9.278;2023-02-13T03:06:11;100739.56;;;1.97;71.21
9969;BME280;5025;48.890;9.278;2023-02-13T03:08:46;100735.19;;;1.96;71.03
9969;BME280;5025;48.890;9.278;2023-02-13T03:11:34;100732.78;;;1.93;71.06
9969;BME280;5025;48.890;9.278;2023-02-13T03:14:19;100740.31;;;1.88;71.23
9969;BME280;5025;48.890;9.278;2023-02-13T03:16:46;100733.91;;;1.91;71.21
9969;BME280;5025;48.890;9.278;2023-02-13T03:25:28;100745.38;;;1.91;71.35
9969;BME280;5025;48.890;9.278;2023-02-13T03:31:08;100739.81;;;1.94;71.42
9969;BME280;5025;48.890;9.278;2023-02-13T03:34:15;100739.81;;;1.94;71.40
9969;BME280;5025;48.890;9.278;2023-02-13T03:36:40;100743.31;;;1.95;71.59
9969;BME280;5025;48.890;9.278;2023-02-13T03:39:43;100749.50;;;1.95;71.39
9969;BME280;5025;48.890;9.278;2023-02-13T03:42:20;100747.69;;;1.96;71.51
9969;BME280;5025;48.890;9.278;2023-02-13T03:44:57;100750.47;;;1.94;71.60
9969;BME280;5025;48.890;9.278;2023-02-13T03:47:44;100758.59;;;1.93;71.55
9969;BME280;5025;48.890;9.278;2023-02-13T03:50:11;100768.66;;;1.89;71.71
9969;BME280;5025;48.890;9.278;2023-02-13T03:52:53;100766.81;;;1.90;71.70
9969;BME280;5025;48.890;9.278;2023-02-13T03:55:24;100765.38;;;1.86;71.70
9969;BME280;5025;48.890;9.278;2023-02-13T03:58:24;100769.41;;;1.80;71.73
9969;BME280;5025;48.890;9.278;2023-02-13T04:01:11;100774.84;;;1.78;71.75
9969;BME280;5025;48.890;9.278;2023-02-13T04:06:29;100780.53;;;1.74;71.73
9969;BME280;5025;48.890;9.278;2023-02-13T04:08:56;100780.78;;;1.71;71.69
9969;BME280;5025;48.890;9.278;2023-02-13T04:11:28;100789.00;;;1.68;71.71
9969;BME280;5025;48.890;9.278;2023-02-13T04:13:57;100784.88;;;1.64;71.77
9969;BME280;5025;48.890;9.278;2023-02-13T04:16:37;100786.34;;;1.56;72.01
9969;BME280;5025;48.890;9.278;2023-02-13T04:19:04;100786.44;;;1.55;71.93
9969;BME280;5025;48.890;9.278;2023-02-13T04:21:34;100783.66;;;1.56;71.90
9969;BME280;5025;48.890;9.278;2023-02-13T04:24:01;100787.31;;;1.55;71.88
9969;BME280;5025;48.890;9.278;2023-02-13T04:26:32;100789.97;;;1.55;71.74
9969;BME280;5025;48.890;9.278;2023-02-13T04:28:59;100789.22;;;1.53;71.51
9969;BME280;5025;48.890;9.278;2023-02-13T04:31:24;100789.47;;;1.50;71.83
9969;BME280;5025;48.890;9.278;2023-02-13T04:33:49;100795.91;;;1.48;71.84
9969;BME280;5025;48.890;9.278;2023-02-13T04:36:15;100790.59;;;1.48;71.81
9969;BME280;5025;48.890;9.278;2023-02-13T04:38:40;100792.50;;;1.46;71.80
9969;BME280;5025;48.890;9.278;2023-02-13T04:41:05;100793.38;;;1.46;71.89
9969;BME280;5025;48.890;9.278;2023-02-13T04:43:30;100787.19;;;1.46;71.87
9969;BME280;5025;48.890;9.278;2023-02-13T04:45:56;100785.63;;;1.43;71.96
9969;BME280;5025;48.890;9.278;2023-02-13T04:48:21;100791.91;;;1.42;72.23
9969;BME280;5025;48.890;9.278;2023-02-13T04:50:46;100786.56;;;1.42;72.04
9969;BME280;5025;48.890;9.278;2023-02-13T04:53:12;100789.25;;;1.42;72.13
9969;BME280;5025;48.890;9.278;2023-02-13T04:55:37;100792.84;;;1.41;71.84
9969;BME280;5025;48.890;9.278;2023-02-13T04:58:03;100796.63;;;1.38;72.03
9969;BME280;5025;48.890;9.278;2023-02-13T05:00:28;100791.31;;;1.38;72.02
9969;BME280;5025;48.890;9.278;2023-02-13T05:02:59;100791.31;;;1.38;71.99
9969;BME280;5025;48.890;9.278;2023-02-13T05:05:25;100787.06;;;1.36;72.07
9969;BME280;5025;48.890;9.278;2023-02-13T05:07:50;100795.16;;;1.34;72.02
9969;BME280;5025;48.890;9.278;2023-02-13T05:10:15;100789.13;;;1.32;72.06
9969;BME280;5025;48.890;9.278;2023-02-13T05:12:41;100799.75;;;1.32;72.10
9969;BME280;5025;48.890;9.278;2023-02-13T05:15:06;100798.94;;;1.32;71.91
9969;BME280;5025;48.890;9.278;2023-02-13T05:17:32;100793.84;;;1.29;71.90
9969;BME280;5025;48.890;9.278;2023-02-13T05:19:57;100792.25;;;1.26;71.95
9969;BME280;5025;48.890;9.278;2023-02-13T05:22:23;100805.81;;;1.23;72.03
9969;BME280;5025;48.890;9.278;2023-02-13T05:25:07;100798.88;;;1.20;72.08
9969;BME280;5025;48.890;9.278;2023-02-13T05:27:33;100794.03;;;1.14;72.06
9969;BME280;5025;48.890;9.278;2023-02-13T05:29:58;100796.69;;;1.14;71.99
9969;BME280;5025;48.890;9.278;2023-02-13T05:32:23;100801.31;;;1.12;72.10
9969;BME280;5025;48.890;9.278;2023-02-13T05:34:49;100799.59;;;1.11;72.38
9969;BME280;5025;48.890;9.278;2023-02-13T05:37:14;100794.28;;;1.11;72.61
9969;BME280;5025;48.890;9.278;2023-02-13T05:39:39;100798.53;;;1.14;72.00
9969;BME280;5025;48.890;9.278;2023-02-13T05:42:05;100794.28;;;1.11;72.11
9969;BME280;5025;48.890;9.278;2023-02-13T05:44:30;100797.91;;;1.10;72.24
9969;BME280;5025;48.890;9.278;2023-02-13T05:46:56;100795.50;;;1.07;72.12
9969;BME280;5025;48.890;9.278;2023-02-13T05:49:21;100794.16;;;1.01;72.14
9969;BME280;5025;48.890;9.278;2023-02-13T05:51:47;100795.69;;;0.93;72.28
9969;BME280;5025;48.890;9.278;2023-02-13T05:54:13;100797.13;;;0.85;72.26
9969;BME280;5025;48.890;9.278;2023-02-13T05:56:38;100797.25;;;0.84;72.17
9969;BME280;5025;48.890;9.278;2023-02-13T05:59:04;100789.38;;;0.82;72.22
9969;BME280;5025;48.890;9.278;2023-02-13T06:01:29;100796.50;;;0.82;72.16
9969;BME280;5025;48.890;9.278;2023-02-13T06:03:54;100798.31;;;0.81;72.32
9969;BME280;5025;48.890;9.278;2023-02-13T06:06:20;100796.63;;;0.80;72.34
9969;BME280;5025;48.890;9.278;2023-02-13T06:08:46;100797.47;;;0.81;72.34
9969;BME280;5025;48.890;9.278;2023-02-13T06:11:12;100798.44;;;0.80;72.21
9969;BME280;5025;48.890;9.278;2023-02-13T06:13:37;100798.53;;;0.78;72.13
9969;BME280;5025;48.890;9.278;2023-02-13T06:16:06;100798.53;;;0.78;72.56
9969;BME280;5025;48.890;9.278;2023-02-13T06:18:32;100797.72;;;0.78;72.23
9969;BME280;5025;48.890;9.278;2023-02-13T06:20:57;100802.16;;;0.77;72.28
9969;BME280;5025;48.890;9.278;2023-02-13T06:23:23;100805.81;;;0.76;72.35
9969;BME280;5025;48.890;9.278;2023-02-13T06:25:49;100805.06;;;0.74;72.22
9969;BME280;5025;48.890;9.278;2023-02-13T06:28:14;100802.38;;;0.74;72.38
9969;BME280;5025;48.890;9.278;2023-02-13T06:30:39;100800.72;;;0.73;72.50
9969;BME280;5025;48.890;9.278;2023-02-13T06:33:05;100804.22;;;0.74;72.34
9969;BME280;5025;48.890;9.278;2023-02-13T06:35:30;100798.16;;;0.71;72.16
9969;BME280;5025;48.890;9.278;2023-02-13T06:37:56;100793.81;;;0.70;72.43
9969;BME280;5025;48.890;9.278;2023-02-13T06:40:21;100806.25;;;0.70;72.24
9969;BME280;5025;48.890;9.278;2023-02-13T06:42:47;100808.94;;;0.70;72.28
9969;BME280;5025;48.890;9.278;2023-02-13T06:45:12;100809.88;;;0.69;72.45
9969;BME280;5025;48.890;9.278;2023-02-13T06:47:43;100805.28;;;0.71;72.31
9969;BME280;5025;48.890;9.278;2023-02-13T06:50:10;100807.22;;;0.69;72.28
9969;BME280;5025;48.890;9.278;2023-02-13T06:52:35;100810.47;;;0.73;72.43
9969;BME280;5025;48.890;9.278;2023-02-13T06:55:01;100811.34;;;0.73;72.36
9969;BME280;5025;48.890;9.278;2023-02-13T06:57:26;100810.25;;;0.76;72.32
9969;BME280;5025;48.890;9.278;2023-02-13T06:59:54;100814.84;;;0.74;72.20
9969;BME280;5025;48.890;9.278;2023-02-13T07:02:19;100816.03;;;0.69;72.30
9969;BME280;5025;48.890;9.278;2023-02-13T07:04:44;100810.22;;;0.64;72.43
9969;BME280;5025;48.890;9.278;2023-02-13T07:07:09;100811.63;;;0.57;72.44
9969;BME280;5025;48.890;9.278;2023-02-13T07:09:35;100808.25;;;0.55;72.38
9969;BME280;5025;48.890;9.278;2023-02-13T07:12:03;100815.88;;;0.60;72.65
9969;BME280;5025;48.890;9.278;2023-02-13T07:14:29;100813.09;;;0.61;72.66
9969;BME280;5025;48.890;9.278;2023-02-13T07:16:54;100824.47;;;0.63;72.47
9969;BME280;5025;48.890;9.278;2023-02-13T07:19:20;100817.34;;;0.64;72.38
9969;BME280;5025;48.890;9.278;2023-02-13T07:21:46;100827.00;;;0.65;72.46
9969;BME280;5025;48.890;9.278;2023-02-13T07:24:11;100824.34;;;0.65;72.66
9969;BME280;5025;48.890;9.278;2023-02-13T07:26:36;100824.56;;;0.62;72.41
9969;BME280;5025;48.890;9.278;2023-02-13T07:29:01;100815.28;;;0.56;72.85
9969;BME280;5025;48.890;9.278;2023-02-13T07:31:33;100834.84;;;0.55;72.76
9969;BME280;5025;48.890;9.278;2023-02-13T07:33:59;100828.44;;;0.58;72.67
9969;BME280;5025;48.890;9.278;2023-02-13T07:36:24;100832.06;;;0.57;72.67
9969;BME280;5025;48.890;9.278;2023-02-13T07:38:50;100826.41;;;0.61;72.59
9969;BME280;5025;48.890;9.278;2023-02-13T07:41:15;100823.50;;;0.64;72.88
9969;BME280;5025;48.890;9.278;2023-02-13T07:43:40;100831.88;;;0.71;72.64
9969;BME280;5025;48.890;9.278;2023-02-13T07:46:06;100829.31;;;0.69;72.69
9969;BME280;5025;48.890;9.278;2023-02-13T07:48:31;100834.53;;;0.71;72.68
9969;BME280;5025;48.890;9.278;2023-02-13T07:51:03;100829.97;;;0.73;72.87
9969;BME280;5025;48.890;9.278;2023-02-13T07:53:29;100823.66;;;0.74;72.91
9969;BME280;5025;48.890;9.278;2023-02-13T07:55:55;100832.16;;;0.79;72.72
9969;BME280;5025;48.890;9.278;2023-02-13T07:58:20;100826.63;;;0.82;72.93
9969;BME280;5025;48.890;9.278;2023-02-13T08:00:46;100832.44;;;0.87;72.80
9969;BME280;5025;48.890;9.278;2023-02-13T08:03:11;100832.91;;;0.93;72.94
9969;BME280;5025;48.890;9.278;2023-02-13T08:05:37;100827.13;;;0.99;72.94
9969;BME280;5025;48.890;9.278;2023-02-13T08:08:03;100829.34;;;1.05;73.07
9969;BME280;5025;48.890;9.278;2023-02-13T08:10:28;100828.16;;;1.09;73.17
9969;BME280;5025;48.890;9.278;2023-02-13T08:13:13;100831.81;;;1.19;73.01
9969;BME280;5025;48.890;9.278;2023-02-13T08:15:40;100829.50;;;1.26;73.03
9969;BME280;5025;48.890;9.278;2023-02-13T08:18:05;100836.19;;;1.32;73.05
9969;BME280;5025;48.890;9.278;2023-02-13T08:20:31;100830.25;;;1.39;73.14
9969;BME280;5025;48.890;9.278;2023-02-13T08:23:06;100831.34;;;1.37;73.41
9969;BME280;5025;48.890;9.278;2023-02-13T08:25:32;100832.56;;;1.44;73.50
9969;BME280;5025;48.890;9.278;2023-02-13T08:27:59;100826.16;;;1.47;73.36
9969;BME280;5025;48.890;9.278;2023-02-13T08:30:24;100832.94;;;1.51;73.39
9969;BME280;5025;48.890;9.278;2023-02-13T08:32:49;100830.88;;;1.54;73.47
9969;BME280;5025;48.890;9.278;2023-02-13T08:35:15;100827.97;;;1.57;73.70
9969;BME280;5025;48.890;9.278;2023-02-13T08:37:40;100832.81;;;1.64;73.59
9969;BME280;5025;48.890;9.278;2023-02-13T08:40:06;100824.72;;;1.65;73.97
9969;BME280;5025;48.890;9.278;2023-02-13T08:42:34;100822.66;;;1.69;73.83
9969;BME280;5025;48.890;9.278;2023-02-13T08:45:00;100823.16;;;1.74;73.90
9969;BME280;5025;48.890;9.278;2023-02-13T08:47:25;100813.69;;;1.81;73.93
9969;BME280;5025;48.890;9.278;2023-02-13T08:49:50;100814.91;;;1.88;74.00
9969;BME280;5025;48.890;9.278;2023-02-13T08:52:15;100808.00;;;1.97;73.83
9969;BME280;5025;48.890;9.278;2023-02-13T08:54:41;100813.56;;;2.05;74.13
9969;BME280;5025;48.890;9.278;2023-02-13T08:57:06;100817.19;;;2.15;74.10
9969;BME280;5025;48.890;9.278;2023-02-13T08:59:32;100813.44;;;2.07;74.46
9969;BME280;5025;48.890;9.278;2023-02-13T09:01:57;100808.81;;;2.20;74.79
9969;BME280;5025;48.890;9.278;2023-02-13T09:04:23;100810.47;;;2.32;74.84
9969;BME280;5025;48.890;9.278;2023-02-13T09:06:48;100814.06;;;2.43;74.60
9969;BME280;5025;48.890;9.278;2023-02-13T09:09:13;100816.72;;;2.54;74.77
9969;BME280;5025;48.890;9.278;2023-02-13T09:11:40;100817.50;;;2.66;74.63
9969;BME280;5025;48.890;9.278;2023-02-13T09:14:05;100817.84;;;2.73;74.83
9969;BME280;5025;48.890;9.278;2023-02-13T09:16:30;100812.22;;;2.87;74.92
9969;BME280;5025;48.890;9.278;2023-02-13T09:18:56;100814.81;;;2.98;74.96
9969;BME280;5025;48.890;9.278;2023-02-13T09:21:21;100819.13;;;3.11;74.70
9969;BME280;5025;48.890;9.278;2023-02-13T09:23:48;100804.28;;;3.18;74.83
9969;BME280;5025;48.890;9.278;2023-02-13T09:26:15;100809.69;;;3.28;74.88
9969;BME280;5025;48.890;9.278;2023-02-13T09:28:43;100808.06;;;3.36;74.88
9969;BME280;5025;48.890;9.278;2023-02-13T09:31:10;100807.25;;;3.46;75.06
9969;BME280;5025;48.890;9.278;2023-02-13T09:33:36;100805.47;;;3.56;74.84
9969;BME280;5025;48.890;9.278;2023-02-13T09:36:06;100811.84;;;3.65;74.92
9969;BME280;5025;48.890;9.278;2023-02-13T09:38:32;100805.44;;;3.77;74.93
9969;BME280;5025;48.890;9.278;2023-02-13T09:41:07;100809.97;;;3.96;75.05
9969;BME280;5025;48.890;9.278;2023-02-13T09:43:40;100813.56;;;4.16;74.82
9969;BME280;5025;48.890;9.278;2023-02-13T09:46:14;100815.16;;;4.38;74.69
9969;BME280;5025;48.890;9.278;2023-02-13T09:48:42;100807.44;;;4.64;74.40
9969;BME280;5025;48.890;9.278;2023-02-13T09:51:17;100810.94;;;4.84;73.78
9969;BME280;5025;48.890;9.278;2023-02-13T09:53:56;100807.59;;;5.02;73.71
9969;BME280;5025;48.890;9.278;2023-02-13T10:16:28;100808.63;;;5.38;72.52
9969;BME280;5025;48.890;9.278;2023-02-13T10:18:58;100804.38;;;5.36;72.56
9969;BME280;5025;48.890;9.278;2023-02-13T10:21:28;100793.53;;;5.47;72.21
9969;BME280;5025;48.890;9.278;2023-02-13T10:24:01;100798.78;;;5.67;71.95
9969;BME280;5025;48.890;9.278;2023-02-13T10:26:35;100801.59;;;5.75;71.47
9969;BME280;5025;48.890;9.278;2023-02-13T10:29:22;100794.78;;;5.81;71.09
9969;BME280;5025;48.890;9.278;2023-02-13T10:32:10;100788.53;;;6.00;70.85
9969;BME280;5025;48.890;9.278;2023-02-13T10:34:41;100786.28;;;6.23;70.52
9969;BME280;5025;48.890;9.278;2023-02-13T10:37:13;100785.91;;;6.36;69.99
9969;BME280;5025;48.890;9.278;2023-02-13T10:39:40;100782.38;;;6.53;69.69
9969;BME280;5025;48.890;9.278;2023-02-13T10:47:45;100777.44;;;6.85;68.79
9969;BME280;5025;48.890;9.278;2023-02-13T11:01:08;100758.16;;;7.60;67.33
9969;BME280;5025;48.890;9.278;2023-02-13T11:03:38;100754.25;;;7.54;66.44
9969;BME280;5025;48.890;9.278;2023-02-13T11:06:11;100752.56;;;7.53;65.73
9969;BME280;5025;48.890;9.278;2023-02-13T11:08:40;100747.25;;;7.69;65.96
9969;BME280;5025;48.890;9.278;2023-02-13T11:11:36;100744.50;;;7.96;65.34
9969;BME280;5025;48.890;9.278;2023-02-13T11:14:23;100742.03;;;8.11;65.00
9969;BME280;5025;48.890;9.278;2023-02-13T11:17:04;100747.59;;;8.17;64.63
9969;BME280;5025;48.890;9.278;2023-02-13T11:19:48;100744.91;;;8.17;64.61
9969;BME280;5025;48.890;9.278;2023-02-13T11:22:27;100733.31;;;8.33;64.43
9969;BME280;5025;48.890;9.278;2023-02-13T11:25:06;100741.28;;;8.51;63.97
9969;BME280;5025;48.890;9.278;2023-02-13T11:27:36;100739.44;;;8.60;63.78
9969;BME280;5025;48.890;9.278;2023-02-13T11:33:01;100736.91;;;8.58;62.09
9969;BME280;5025;48.890;9.278;2023-02-13T11:35:35;100743.28;;;8.66;62.19
9969;BME280;5025;48.890;9.278;2023-02-13T11:40:35;100737.06;;;8.98;61.75
9969;BME280;5025;48.890;9.278;2023-02-13T11:43:03;100732.69;;;9.05;61.56
9969;BME280;5025;48.890;9.278;2023-02-13T11:45:30;100735.69;;;9.10;61.17
9969;BME280;5025;48.890;9.278;2023-02-13T11:47:56;100732.66;;;9.22;60.64
9969;BME280;5025;48.890;9.278;2023-02-13T11:50:26;100720.13;;;9.37;60.55
9969;BME280;5025;48.890;9.278;2023-02-13T11:52:55;100729.00;;;9.54;60.10
9969;BME280;5025;48.890;9.278;2023-02-13T11:55:29;100720.72;;;9.64;59.99
9969;BME280;5025;48.890;9.278;2023-02-13T11:58:01;100730.47;;;9.73;59.51
9969;BME280;5025;48.890;9.278;2023-02-13T12:00:31;100718.81;;;9.81;59.39
9969;BME280;5025;48.890;9.278;2023-02-13T12:03:01;100724.38;;;9.79;58.63
9969;BME280;5025;48.890;9.278;2023-02-13T12:05:27;100717.41;;;9.85;58.60
9969;BME280;5025;48.890;9.278;2023-02-13T12:07:57;100715.66;;;10.00;58.54
9969;BME280;5025;48.890;9.278;2023-02-13T12:10:27;100718.13;;;10.10;57.82
9969;BME280;5025;48.890;9.278;2023-02-13T12:15:24;100712.25;;;10.38;57.27
9969;BME280;5025;48.890;9.278;2023-02-13T12:26:44;100704.06;;;10.69;55.96
9969;BME280;5025;48.890;9.278;2023-02-13T12:32:30;100697.25;;;11.11;55.57
9969;BME280;5025;48.890;9.278;2023-02-13T12:45:40;100672.00;;;11.86;53.87
9969;BME280;5025;48.890;9.278;2023-02-13T13:02:08;100669.63;;;11.97;50.25
9969;BME280;5025;48.890;9.278;2023-02-13T13:04:49;100660.75;;;12.25;50.28
9969;BME280;5025;48.890;9.278;2023-02-13T13:10:18;100659.38;;;12.58;47.99
9969;BME280;5025;48.890;9.278;2023-02-13T13:17:59;100655.53;;;12.95;47.46
9969;BME280;5025;48.890;9.278;2023-02-13T13:23:10;100651.47;;;13.19;46.68
9969;BME280;5025;48.890;9.278;2023-02-13T13:28:34;100651.22;;;13.49;46.00
9969;BME280;5025;48.890;9.278;2023-02-13T13:31:02;100642.16;;;13.70;45.70
9969;BME280;5025;48.890;9.278;2023-02-13T13:33:28;100639.69;;;13.95;45.50
9969;BME280;5025;48.890;9.278;2023-02-13T13:38:37;100639.56;;;14.30;44.66
9969;BME280;5025;48.890;9.278;2023-02-13T13:41:10;100640.41;;;14.38;44.47
9969;BME280;5025;48.890;9.278;2023-02-13T13:51:38;100638.31;;;15.00;43.28
9969;BME280;5025;48.890;9.278;2023-02-13T14:07:25;100623.09;;;15.96;41.24
9969;BME280;5025;48.890;9.278;2023-02-13T14:09:57;100627.59;;;16.09;41.22
9969;BME280;5025;48.890;9.278;2023-02-13T14:14:57;100619.28;;;16.54;40.59
9969;BME280;5025;48.890;9.278;2023-02-13T14:17:50;100623.06;;;16.78;40.23
9969;BME280;5025;48.890;9.278;2023-02-13T14:26:27;100627.47;;;16.79;39.47
9969;BME280;5025;48.890;9.278;2023-02-13T14:31:37;100623.94;;;16.97;38.69
9969;BME280;5025;48.890;9.278;2023-02-13T14:34:07;100623.28;;;17.02;38.41
9969;BME280;5025;48.890;9.278;2023-02-13T14:36:43;100625.63;;;16.98;38.06
9969;BME280;5025;48.890;9.278;2023-02-13T14:39:27;100619.66;;;16.83;37.69
9969;BME280;5025;48.890;9.278;2023-02-13T14:44:30;100634.06;;;16.72;38.04
9969;BME280;5025;48.890;9.278;2023-02-13T14:46:58;100625.53;;;16.61;38.04
9969;BME280;5025;48.890;9.278;2023-02-13T14:49:35;100623.09;;;16.53;38.01
9969;BME280;5025;48.890;9.278;2023-02-13T14:52:07;100623.03;;;16.60;38.02
9969;BME280;5025;48.890;9.278;2023-02-13T14:54:50;100613.69;;;16.49;37.71
9969;BME280;5025;48.890;9.278;2023-02-13T14:57:20;100624.59;;;16.49;37.70
9969;BME280;5025;48.890;9.278;2023-02-13T14:59:49;100625.81;;;16.53;37.70
9969;BME280;5025;48.890;9.278;2023-02-13T15:02:24;100626.06;;;16.45;37.64
9969;BME280;5025;48.890;9.278;2023-02-13T15:05:06;100622.16;;;16.41;37.80
9969;BME280;5025;48.890;9.278;2023-02-13T15:07:35;100623.19;;;16.40;37.52
9969;BME280;5025;48.890;9.278;2023-02-13T15:10:41;100614.88;;;16.28;37.67
9969;BME280;5025;48.890;9.278;2023-02-13T15:13:17;100601.75;;;16.18;37.76
9969;BME280;5025;48.890;9.278;2023-02-13T15:15:44;100605.38;;;16.12;37.90
9969;BME280;5025;48.890;9.278;2023-02-13T15:18:20;100610.66;;;16.00;38.10
9969;BME280;5025;48.890;9.278;2023-02-13T15:20:46;100610.88;;;15.99;38.04
9969;BME280;5025;48.890;9.278;2023-02-13T15:23:26;100609.25;;;15.98;38.22
9969;BME280;5025;48.890;9.278;2023-02-13T15:26:03;100599.56;;;15.63;38.55
9969;BME280;5025;48.890;9.278;2023-02-13T15:28:30;100606.28;;;15.60;39.28
9969;BME280;5025;48.890;9.278;2023-02-13T15:31:00;100605.25;;;15.55;38.97
9969;BME280;5025;48.890;9.278;2023-02-13T15:33:30;100601.31;;;15.44;39.33
9969;BME280;5025;48.890;9.278;2023-02-13T15:35:59;100608.47;;;15.38;39.42
9969;BME280;5025;48.890;9.278;2023-02-13T15:38:30;100607.91;;;15.23;39.83
9969;BME280;5025;48.890;9.278;2023-02-13T15:41:05;100612.97;;;15.06;39.88
9969;BME280;5025;48.890;9.278;2023-02-13T15:43:34;100610.06;;;14.94;40.21
9969;BME280;5025;48.890;9.278;2023-02-13T15:46:04;100612.19;;;14.79;40.51
9969;BME280;5025;48.890;9.278;2023-02-13T15:48:32;100613.00;;;14.59;40.65
9969;BME280;5025;48.890;9.278;2023-02-13T15:50:58;100609.03;;;14.35;41.10
9969;BME280;5025;48.890;9.278;2023-02-13T15:53:24;100608.41;;;14.20;41.47
9969;BME280;5025;48.890;9.278;2023-02-13T15:56:01;100608.78;;;14.03;41.79
9969;BME280;5025;48.890;9.278;2023-02-13T15:58:31;100613.38;;;13.89;42.10
9969;BME280;5025;48.890;9.278;2023-02-13T16:01:05;100619.00;;;13.74;42.64
9969;BME280;5025;48.890;9.278;2023-02-13T16:03:33;100618.06;;;13.54;43.01
9969;BME280;5025;48.890;9.278;2023-02-13T16:05:59;100621.53;;;13.34;43.28
9969;BME280;5025;48.890;9.278;2023-02-13T16:08:27;100625.81;;;13.15;43.73
9969;BME280;5025;48.890;9.278;2023-02-13T16:14:00;100623.66;;;12.76;44.50
9969;BME280;5025;48.890;9.278;2023-02-13T16:16:28;100631.88;;;12.61;44.60
9969;BME280;5025;48.890;9.278;2023-02-13T16:18:55;100630.06;;;12.40;44.98
9969;BME280;5025;48.890;9.278;2023-02-13T16:21:22;100624.13;;;12.08;45.57